createdAt,value
2023-03-29T00:00:41.368Z,5.80
2023-03-29T00:02:48.579Z,6.30
2023-03-29T00:04:53.429Z,5.80
2023-03-29T00:06:55.690Z,6.63
2023-03-29T00:08:57.855Z,6.30
2023-03-29T00:11:01.898Z,5.13
2023-03-29T00:13:04.066Z,5.30
2023-03-29T00:15:08.425Z,5.73
2023-03-29T00:17:10.467Z,6.63
2023-03-29T00:19:12.547Z,7.53
2023-03-29T00:21:14.768Z,5.30
2023-03-29T00:23:18.339Z,5.87
2023-03-29T00:25:20.566Z,4.90
2023-03-29T00:27:22.853Z,5.77
2023-03-29T00:29:25.000Z,5.30
2023-03-29T00:31:27.505Z,5.87
2023-03-29T00:33:29.601Z,6.03
2023-03-29T00:35:31.710Z,5.63
2023-03-29T00:37:33.972Z,6.33
2023-03-29T00:39:36.992Z,5.40
2023-03-29T00:41:39.226Z,6.10
2023-03-29T00:44:01.713Z,5.87
2023-03-29T00:46:04.061Z,4.93
2023-03-29T00:48:08.699Z,4.77
2023-03-29T00:50:16.366Z,4.77
2023-03-29T00:52:24.235Z,5.17
2023-03-29T00:54:26.324Z,4.93
2023-03-29T00:56:29.928Z,5.50
2023-03-29T00:59:08.648Z,5.60
2023-03-29T01:01:15.506Z,5.10
2023-03-29T01:03:24.704Z,5.60
2023-03-29T01:05:34.028Z,5.80
2023-03-29T01:07:48.164Z,5.37
2023-03-29T01:09:56.258Z,5.60
2023-03-29T01:12:01.790Z,5.77
2023-03-29T01:14:23.212Z,4.80
2023-03-29T01:16:28.607Z,5.33
2023-03-29T01:18:31.463Z,5.17
2023-03-29T01:20:38.825Z,5.03
2023-03-29T01:22:55.973Z,4.93
2023-03-29T01:25:42.108Z,5.07
2023-03-29T01:28:02.424Z,5.30
2023-03-29T01:30:17.398Z,5.00
2023-03-29T01:32:23.338Z,5.30
2023-03-29T01:34:31.849Z,5.47
2023-03-29T01:36:49.637Z,5.13
2023-03-29T01:38:57.483Z,5.70
2023-03-29T01:40:59.609Z,4.90
2023-03-29T01:43:46.725Z,4.87
2023-03-29T01:45:56.089Z,4.70
2023-03-29T01:48:07.866Z,4.83
2023-03-29T01:50:30.990Z,5.67
2023-03-29T01:52:39.861Z,5.10
2023-03-29T01:54:47.920Z,5.30
2023-03-29T01:56:50.650Z,4.80
2023-03-29T01:58:57.317Z,4.73
2023-03-29T02:01:00.566Z,4.90
2023-03-29T02:03:07.290Z,4.60
2023-03-29T02:05:10.926Z,5.53
2023-03-29T02:07:13.172Z,4.47
2023-03-29T02:09:15.226Z,5.00
2023-03-29T02:11:17.715Z,5.60
2023-03-29T02:13:20.111Z,4.63
2023-03-29T02:15:24.545Z,5.10
2023-03-29T02:17:28.093Z,4.67
2023-03-29T02:19:30.678Z,4.90
2023-03-29T02:21:44.502Z,4.70
2023-03-29T02:23:48.687Z,5.23
2023-03-29T02:25:53.545Z,5.03
2023-03-29T02:27:56.831Z,4.80
2023-03-29T02:29:59.436Z,5.27
2023-03-29T02:32:20.644Z,5.23
2023-03-29T02:34:24.577Z,5.10
2023-03-29T02:36:34.894Z,5.33
2023-03-29T02:38:39.105Z,5.20
2023-03-29T02:40:42.848Z,5.13
2023-03-29T02:42:46.271Z,4.67
2023-03-29T02:44:50.963Z,5.27
2023-03-29T02:46:57.061Z,4.50
2023-03-29T02:49:00.239Z,5.10
2023-03-29T02:51:07.599Z,5.47
2023-03-29T02:53:13.689Z,5.50
2023-03-29T02:55:18.988Z,6.23
2023-03-29T02:57:26.593Z,4.60
2023-03-29T02:59:30.284Z,5.07
2023-03-29T03:01:32.566Z,5.13
2023-03-29T03:03:35.766Z,4.87
2023-03-29T03:05:39.307Z,4.90
2023-03-29T03:07:42.505Z,5.10
2023-03-29T03:09:44.723Z,5.60
2023-03-29T03:11:47.019Z,5.70
2023-03-29T03:13:49.236Z,4.93
2023-03-29T03:15:51.499Z,5.90
2023-03-29T03:17:54.665Z,4.30
2023-03-29T03:19:57.043Z,4.40
2023-03-29T03:21:59.824Z,5.43
2023-03-29T03:24:02.059Z,4.50
2023-03-29T03:26:05.145Z,4.90
2023-03-29T03:28:09.337Z,5.40
2023-03-29T03:30:11.927Z,5.60
2023-03-29T03:32:37.592Z,5.80
2023-03-29T03:34:51.837Z,5.17
2023-03-29T03:36:57.258Z,5.57
2023-03-29T03:38:59.499Z,4.47
2023-03-29T03:41:02.317Z,4.83
2023-03-29T03:43:08.053Z,5.70
2023-03-29T03:45:10.837Z,4.63
2023-03-29T03:47:25.838Z,4.83
2023-03-29T03:49:30.069Z,5.30
2023-03-29T03:51:32.788Z,5.53
2023-03-29T03:53:35.223Z,4.70
2023-03-29T03:55:50.263Z,4.60
2023-03-29T03:57:57.446Z,4.97
2023-03-29T04:00:00.153Z,4.90
2023-03-29T04:02:16.294Z,5.00
2023-03-29T04:04:19.789Z,4.63
2023-03-29T04:06:33.323Z,4.70
2023-03-29T04:08:54.160Z,4.40
2023-03-29T04:11:07.863Z,5.43
2023-03-29T04:13:13.042Z,4.90
2023-03-29T04:15:38.790Z,5.73
2023-03-29T04:17:44.816Z,4.40
2023-03-29T04:19:54.926Z,5.00
2023-03-29T04:21:57.227Z,4.60
2023-03-29T04:23:59.953Z,4.53
2023-03-29T04:26:02.469Z,4.53
2023-03-29T04:28:42.983Z,4.40
2023-03-29T04:30:52.856Z,3.97
2023-03-29T04:33:13.185Z,4.73
2023-03-29T04:35:18.613Z,4.30
2023-03-29T04:37:22.402Z,4.60
2023-03-29T04:39:32.017Z,4.10
2023-03-29T04:41:35.249Z,4.83
2023-03-29T04:43:41.426Z,4.93
2023-03-29T04:45:56.603Z,4.67
2023-03-29T04:48:32.426Z,5.47
2023-03-29T04:50:36.693Z,4.90
2023-03-29T04:52:39.207Z,4.67
2023-03-29T04:54:41.970Z,4.17
2023-03-29T04:56:54.254Z,5.70
2023-03-29T04:59:09.722Z,5.30
2023-03-29T05:01:12.352Z,5.00
2023-03-29T05:03:18.709Z,5.37
2023-03-29T05:05:44.070Z,4.57
2023-03-29T05:07:46.653Z,4.30
2023-03-29T05:09:50.237Z,4.67
2023-03-29T05:11:52.555Z,3.90
2023-03-29T05:14:00.769Z,5.03
2023-03-29T05:16:04.738Z,4.93
2023-03-29T05:18:07.199Z,4.63
2023-03-29T05:20:10.301Z,4.20
2023-03-29T05:22:12.898Z,4.20
2023-03-29T05:24:16.594Z,3.90
2023-03-29T05:26:31.052Z,4.10
2023-03-29T05:28:33.880Z,4.77
2023-03-29T05:30:37.857Z,5.43
2023-03-29T05:32:48.642Z,4.00
2023-03-29T05:34:54.091Z,3.83
2023-03-29T05:36:59.223Z,3.77
2023-03-29T05:39:06.617Z,4.90
2023-03-29T05:41:10.831Z,4.80
2023-03-29T05:43:15.947Z,4.40
2023-03-29T05:45:19.339Z,3.87
2023-03-29T05:47:21.528Z,4.47
2023-03-29T05:49:24.021Z,4.80
2023-03-29T05:51:45.815Z,4.13
2023-03-29T05:53:48.164Z,3.90
2023-03-29T05:55:51.627Z,4.13
2023-03-29T05:57:55.020Z,4.30
2023-03-29T06:00:02.120Z,5.07
2023-03-29T06:02:17.010Z,4.40
2023-03-29T06:04:25.450Z,5.40
2023-03-29T06:06:48.827Z,5.23
2023-03-29T06:08:51.318Z,4.97
2023-03-29T06:11:11.194Z,5.90
2023-03-29T06:13:33.557Z,4.93
2023-03-29T06:15:35.916Z,5.30
2023-03-29T06:17:41.092Z,5.03
2023-03-29T06:19:44.501Z,5.40
2023-03-29T06:21:47.357Z,4.40
2023-03-29T06:23:54.224Z,4.77
2023-03-29T06:25:57.414Z,4.30
2023-03-29T06:28:01.393Z,5.13
2023-03-29T06:30:06.418Z,4.87
2023-03-29T06:32:09.772Z,5.20
2023-03-29T06:34:23.895Z,4.33
2023-03-29T06:36:45.861Z,4.87
2023-03-29T06:38:48.511Z,4.03
2023-03-29T06:41:11.296Z,3.50
2023-03-29T06:43:45.671Z,3.97
2023-03-29T06:45:51.516Z,4.27
2023-03-29T06:48:01.256Z,4.03
2023-03-29T06:50:03.802Z,4.00
2023-03-29T06:52:12.262Z,4.47
2023-03-29T06:54:14.724Z,3.67
2023-03-29T06:56:25.965Z,4.50
2023-03-29T06:58:39.305Z,4.63
2023-03-29T07:01:00.800Z,4.13
2023-03-29T07:03:23.550Z,5.00
2023-03-29T07:05:30.270Z,3.87
2023-03-29T07:07:52.679Z,4.93
2023-03-29T07:10:02.840Z,4.53
2023-03-29T07:12:24.156Z,4.57
2023-03-29T07:14:30.104Z,4.33
2023-03-29T07:16:33.000Z,4.40
2023-03-29T07:18:51.474Z,4.27
2023-03-29T07:21:13.263Z,3.60
2023-03-29T07:23:15.897Z,4.47
2023-03-29T07:25:21.482Z,4.20
2023-03-29T07:27:24.038Z,4.47
2023-03-29T07:29:26.680Z,3.63
2023-03-29T07:31:29.914Z,4.20
2023-03-29T07:33:53.682Z,3.60
2023-03-29T07:35:55.946Z,3.80
2023-03-29T07:37:59.243Z,4.10
2023-03-29T07:40:04.528Z,3.83
2023-03-29T07:42:39.605Z,4.40
2023-03-29T07:44:44.763Z,3.90
2023-03-29T07:46:47.674Z,4.67
2023-03-29T07:48:50.091Z,4.37
2023-03-29T07:50:52.529Z,4.30
2023-03-29T07:53:01.386Z,4.50
2023-03-29T07:55:06.302Z,4.83
2023-03-29T07:57:28.385Z,4.60
2023-03-29T07:59:33.751Z,4.30
2023-03-29T08:01:56.918Z,4.87
2023-03-29T08:04:09.890Z,3.93
2023-03-29T08:06:30.946Z,5.00
2023-03-29T08:08:33.217Z,6.00
2023-03-29T08:10:45.306Z,6.50
2023-03-29T08:12:58.235Z,5.93
2023-03-29T08:15:07.771Z,5.60
2023-03-29T08:17:10.234Z,5.80
2023-03-29T08:19:17.620Z,6.03
2023-03-29T08:21:41.141Z,5.30
2023-03-29T08:23:43.577Z,5.63
2023-03-29T08:25:50.465Z,6.80
2023-03-29T08:27:53.720Z,5.30
2023-03-29T08:30:15.656Z,5.77
2023-03-29T08:32:18.162Z,5.40
2023-03-29T08:34:20.414Z,5.40
2023-03-29T08:36:33.786Z,4.80
2023-03-29T08:38:43.785Z,5.33
2023-03-29T08:40:48.724Z,5.60
2023-03-29T08:42:54.670Z,5.30
2023-03-29T08:45:29.687Z,5.37
2023-03-29T08:47:40.346Z,5.53
2023-03-29T08:49:51.125Z,5.50
2023-03-29T08:52:00.000Z,6.00
2023-03-29T08:54:11.502Z,5.40
2023-03-29T08:56:39.573Z,5.33
2023-03-29T08:59:00.834Z,5.70
2023-03-29T09:01:09.501Z,5.27
2023-03-29T09:03:57.200Z,6.30
2023-03-29T09:06:12.808Z,6.23
2023-03-29T09:08:17.555Z,5.27
2023-03-29T09:10:27.734Z,5.00
2023-03-29T09:12:43.285Z,4.80
2023-03-29T09:15:01.013Z,5.30
2023-03-29T09:17:41.592Z,5.80
2023-03-29T09:20:01.317Z,5.10
2023-03-29T09:22:15.033Z,4.80
2023-03-29T09:24:35.983Z,5.50
2023-03-29T09:26:52.077Z,5.10
2023-03-29T09:29:46.460Z,5.10
2023-03-29T09:31:49.822Z,6.53
2023-03-29T09:33:58.395Z,5.50
2023-03-29T09:36:23.161Z,4.93
2023-03-29T09:38:28.837Z,6.00
2023-03-29T09:40:39.620Z,5.90
2023-03-29T09:42:52.905Z,4.73
2023-03-29T09:44:57.813Z,5.80
2023-03-29T09:47:19.971Z,5.23
2023-03-29T09:49:29.365Z,5.20
2023-03-29T09:51:33.199Z,5.40
2023-03-29T09:53:35.683Z,4.77
2023-03-29T09:55:52.001Z,5.37
2023-03-29T09:58:20.458Z,4.90
2023-03-29T10:00:26.096Z,5.37
2023-03-29T10:02:30.708Z,5.00
2023-03-29T10:04:33.281Z,5.00
2023-03-29T10:06:36.935Z,5.00
2023-03-29T10:08:42.349Z,4.43
2023-03-29T10:10:44.842Z,5.10
2023-03-29T10:12:52.236Z,4.70
2023-03-29T10:14:54.631Z,4.43
2023-03-29T10:16:57.508Z,4.87
2023-03-29T10:19:34.797Z,4.50
2023-03-29T10:21:37.508Z,6.10
2023-03-29T10:23:40.121Z,4.37
2023-03-29T10:25:43.086Z,5.90
2023-03-29T10:27:46.866Z,4.83
2023-03-29T10:29:49.700Z,5.17
2023-03-29T10:31:52.906Z,4.47
2023-03-29T10:33:56.867Z,5.00
2023-03-29T10:35:59.668Z,4.67
2023-03-29T10:38:05.163Z,4.47
2023-03-29T10:40:15.992Z,5.10
2023-03-29T10:42:20.182Z,5.50
2023-03-29T10:44:29.766Z,5.60
2023-03-29T10:46:41.549Z,4.90
2023-03-29T10:48:49.438Z,4.97
2023-03-29T10:50:54.956Z,5.17
2023-03-29T10:52:57.229Z,5.10
2023-03-29T10:55:02.801Z,4.67
2023-03-29T10:57:10.504Z,5.30
2023-03-29T10:59:29.095Z,6.17
2023-03-29T11:02:02.858Z,6.00
2023-03-29T11:04:28.408Z,5.30
2023-03-29T11:06:38.047Z,5.33
2023-03-29T11:09:00.151Z,5.20
2023-03-29T11:11:24.479Z,5.27
2023-03-29T11:13:58.027Z,4.80
2023-03-29T11:16:17.914Z,4.90
2023-03-29T11:18:28.857Z,4.97
2023-03-29T11:20:45.383Z,4.70
2023-03-29T11:23:06.819Z,5.27
2023-03-29T11:25:15.675Z,5.30
2023-03-29T11:27:39.146Z,5.50
2023-03-29T11:29:49.692Z,5.13
2023-03-29T11:32:04.045Z,4.90
2023-03-29T11:34:20.597Z,5.00
2023-03-29T11:36:39.128Z,5.40
2023-03-29T11:39:09.529Z,4.93
2023-03-29T11:41:42.285Z,4.57
2023-03-29T11:44:35.162Z,5.23
2023-03-29T11:46:44.565Z,4.83
2023-03-29T11:48:54.279Z,6.40
2023-03-29T11:51:26.307Z,5.43
2023-03-29T11:53:44.796Z,5.40
2023-03-29T11:55:48.337Z,5.37
2023-03-29T11:57:57.046Z,4.83
2023-03-29T12:00:05.460Z,5.17
2023-03-29T12:02:42.326Z,5.33
2023-03-29T12:04:51.157Z,6.10
2023-03-29T12:06:59.766Z,5.80
2023-03-29T12:09:26.587Z,5.90
2023-03-29T12:11:33.800Z,5.10
2023-03-29T12:13:44.983Z,5.60
2023-03-29T12:15:55.750Z,5.63
2023-03-29T12:18:27.909Z,5.00
2023-03-29T12:20:33.827Z,4.90
2023-03-29T12:22:37.649Z,6.87
2023-03-29T12:24:42.096Z,4.47
2023-03-29T12:27:17.395Z,5.00
2023-03-29T12:29:25.554Z,12.03
2023-03-29T12:31:58.245Z,32.40
2023-03-29T12:34:21.962Z,27.73
2023-03-29T12:37:21.203Z,5.00
2023-03-29T12:39:46.912Z,12.37
2023-03-29T12:42:15.502Z,10.67
2023-03-29T12:44:37.830Z,4.97
2023-03-29T12:46:59.707Z,7.10
2023-03-29T12:49:10.446Z,4.90
2023-03-29T12:51:16.133Z,4.87
2023-03-29T12:53:28.347Z,5.50
2023-03-29T12:55:47.687Z,5.13
2023-03-29T12:58:06.184Z,4.20
2023-03-29T13:00:32.950Z,5.43
2023-03-29T13:02:36.998Z,4.90
2023-03-29T13:04:54.163Z,5.17
2023-03-29T13:07:03.450Z,5.13
2023-03-29T13:09:21.656Z,5.37
2023-03-29T13:11:27.729Z,5.50
2023-03-29T13:13:39.659Z,5.67
2023-03-29T13:15:43.633Z,4.80
2023-03-29T13:18:04.046Z,5.40
2023-03-29T13:20:25.658Z,5.07
2023-03-29T13:22:55.845Z,5.30
2023-03-29T13:25:27.015Z,5.50
2023-03-29T13:27:45.083Z,5.20
2023-03-29T13:29:53.456Z,4.97
2023-03-29T13:32:23.286Z,4.97
2023-03-29T13:34:31.256Z,4.20
2023-03-29T13:36:48.671Z,4.43
2023-03-29T13:38:53.664Z,4.80
2023-03-29T13:41:07.271Z,5.17
2023-03-29T13:43:21.241Z,4.90
2023-03-29T13:45:27.526Z,5.40
2023-03-29T13:47:32.495Z,4.97
2023-03-29T13:49:36.068Z,5.80
2023-03-29T13:51:45.158Z,5.23
2023-03-29T13:53:54.693Z,4.70
2023-03-29T13:55:58.610Z,4.80
2023-03-29T13:58:25.376Z,5.00
2023-03-29T14:00:39.137Z,5.00
2023-03-29T14:02:46.595Z,4.80
2023-03-29T14:04:51.388Z,5.13
2023-03-29T14:06:56.263Z,3.73
2023-03-29T14:09:00.399Z,4.90
2023-03-29T14:11:03.974Z,4.80
2023-03-29T14:13:06.347Z,4.60
2023-03-29T14:15:24.086Z,4.63
2023-03-29T14:17:26.862Z,4.73
2023-03-29T14:19:34.497Z,4.77
2023-03-29T14:21:37.508Z,4.33
2023-03-29T14:23:44.145Z,4.37
2023-03-29T14:25:46.776Z,4.50
2023-03-29T14:27:49.258Z,4.50
2023-03-29T14:29:52.406Z,4.60
2023-03-29T14:31:54.630Z,4.87
2023-03-29T14:33:59.576Z,4.40
2023-03-29T14:36:06.640Z,4.50
2023-03-29T14:38:12.612Z,4.73
2023-03-29T14:40:19.707Z,4.67
2023-03-29T14:42:26.866Z,4.30
2023-03-29T14:44:34.762Z,4.83
2023-03-29T14:46:37.364Z,4.63
2023-03-29T14:48:39.834Z,4.90
2023-03-29T14:50:42.893Z,4.60
2023-03-29T14:52:47.258Z,4.33
2023-03-29T14:54:52.209Z,4.27
2023-03-29T14:56:54.866Z,4.23
2023-03-29T14:58:57.701Z,4.67
2023-03-29T15:01:21.783Z,4.50
2023-03-29T15:03:26.563Z,3.90
2023-03-29T15:05:36.568Z,4.50
2023-03-29T15:07:40.081Z,3.40
2023-03-29T15:09:45.435Z,4.13
2023-03-29T15:11:52.608Z,4.23
2023-03-29T15:14:08.527Z,3.97
2023-03-29T15:16:15.419Z,3.97
2023-03-29T15:18:19.246Z,4.13
2023-03-29T15:20:30.521Z,4.43
2023-03-29T15:22:34.077Z,3.87
2023-03-29T15:24:43.181Z,3.97
2023-03-29T15:26:46.030Z,3.90
2023-03-29T15:28:55.504Z,4.27
2023-03-29T15:33:14.303Z,4.17
2023-03-29T15:35:25.805Z,4.97
2023-03-29T15:37:28.672Z,3.90
2023-03-29T15:39:32.440Z,3.80
2023-03-29T15:41:34.644Z,4.33
2023-03-29T15:43:37.417Z,4.83
2023-03-29T15:45:39.775Z,4.37
2023-03-29T15:47:42.357Z,5.07
2023-03-29T15:49:47.191Z,12.90
2023-03-29T15:51:49.357Z,5.90
2023-03-29T15:53:51.560Z,3.73
2023-03-29T15:55:55.219Z,5.10
2023-03-29T15:57:58.213Z,7.60
2023-03-29T16:00:01.521Z,9.10
2023-03-29T16:02:04.910Z,5.47
2023-03-29T16:04:11.525Z,3.23
2023-03-29T16:06:13.824Z,3.43
2023-03-29T16:08:16.166Z,5.67
2023-03-29T16:10:18.311Z,3.43
2023-03-29T16:12:20.749Z,2.50
2023-03-29T16:14:28.227Z,3.30
2023-03-29T16:16:30.494Z,2.60
2023-03-29T16:18:32.960Z,2.50
2023-03-29T16:20:35.604Z,3.03
2023-03-29T16:22:37.991Z,2.77
2023-03-29T16:24:40.543Z,2.90
2023-03-29T16:26:43.159Z,3.40
2023-03-29T16:28:45.473Z,3.20
2023-03-29T16:30:48.678Z,3.07
2023-03-29T16:32:51.480Z,3.10
2023-03-29T16:34:53.755Z,3.57
2023-03-29T16:36:56.427Z,4.73
2023-03-29T16:38:58.836Z,3.73
2023-03-29T16:41:01.759Z,4.07
2023-03-29T16:43:04.620Z,4.50
2023-03-29T16:45:07.691Z,3.60
2023-03-29T16:47:12.280Z,2.90
2023-03-29T16:49:18.217Z,3.73
2023-03-29T16:51:21.525Z,3.00
2023-03-29T16:53:23.718Z,3.07
2023-03-29T16:55:25.914Z,3.20
2023-03-29T16:57:28.262Z,3.03
2023-03-29T16:59:30.775Z,3.13
2023-03-29T17:01:33.065Z,3.03
2023-03-29T17:03:38.569Z,3.17
2023-03-29T17:05:47.333Z,3.20
2023-03-29T17:07:49.627Z,3.13
2023-03-29T17:09:51.927Z,3.47
2023-03-29T17:11:54.133Z,3.43
2023-03-29T17:13:56.584Z,3.33
2023-03-29T17:15:58.975Z,4.07
2023-03-29T17:18:01.468Z,3.00
2023-03-29T17:20:06.598Z,3.07
2023-03-29T17:22:09.020Z,3.47
2023-03-29T17:24:11.256Z,3.80
2023-03-29T17:26:13.462Z,4.07
2023-03-29T17:28:15.734Z,4.03
2023-03-29T17:30:18.155Z,4.03
2023-03-29T17:32:20.538Z,3.90
2023-03-29T17:34:22.818Z,4.40
2023-03-29T17:36:25.500Z,3.60
2023-03-29T17:38:29.639Z,3.80
2023-03-29T17:40:31.638Z,4.47
2023-03-29T17:42:33.668Z,7.80
2023-03-29T17:44:35.944Z,6.33
2023-03-29T17:46:38.681Z,5.70
2023-03-29T17:48:40.904Z,5.40
2023-03-29T17:50:43.231Z,4.47
2023-03-29T17:52:45.350Z,4.13
2023-03-29T17:54:47.449Z,4.90
2023-03-29T17:56:50.561Z,3.73
2023-03-29T17:58:53.149Z,6.13
2023-03-29T18:00:55.603Z,6.20
2023-03-29T18:02:57.861Z,4.87
2023-03-29T18:05:01.981Z,6.00
2023-03-29T18:07:04.195Z,6.43
2023-03-29T18:09:06.534Z,6.53
2023-03-29T18:11:13.215Z,4.63
2023-03-29T18:13:16.052Z,5.13
2023-03-29T18:15:18.379Z,5.00
2023-03-29T18:17:20.543Z,4.90
2023-03-29T18:19:23.135Z,4.57
2023-03-29T18:21:26.319Z,4.67
2023-03-29T18:23:28.774Z,4.23
2023-03-29T18:25:31.033Z,4.93
2023-03-29T18:27:33.270Z,4.30
2023-03-29T18:29:35.803Z,4.67
2023-03-29T18:31:38.105Z,4.50
2023-03-29T18:33:40.227Z,5.33
2023-03-29T18:35:48.588Z,4.20
2023-03-29T18:37:52.276Z,4.93
2023-03-29T18:39:54.466Z,4.50
2023-03-29T18:41:56.516Z,5.90
2023-03-29T18:44:00.154Z,5.33
2023-03-29T18:46:02.572Z,5.27
2023-03-29T18:48:08.020Z,5.30
2023-03-29T18:50:10.832Z,4.83
2023-03-29T18:52:13.059Z,5.27
2023-03-29T18:54:15.288Z,4.77
2023-03-29T18:56:17.744Z,4.80
2023-03-29T18:58:24.041Z,5.20
2023-03-29T19:00:26.219Z,5.40
2023-03-29T19:02:28.379Z,4.70
2023-03-29T19:04:30.655Z,4.80
2023-03-29T19:06:32.911Z,4.80
2023-03-29T19:08:37.405Z,5.07
2023-03-29T19:10:39.960Z,5.23
2023-03-29T19:12:42.119Z,4.93
2023-03-29T19:14:44.320Z,5.23
2023-03-29T19:16:46.645Z,5.27
2023-03-29T19:18:48.712Z,5.33
2023-03-29T19:20:51.335Z,5.00
2023-03-29T19:22:53.638Z,4.67
2023-03-29T19:24:55.811Z,4.77
2023-03-29T19:26:58.527Z,5.47
2023-03-29T19:29:01.144Z,4.40
2023-03-29T19:31:04.498Z,4.90
2023-03-29T19:33:06.779Z,5.37
2023-03-29T19:35:09.689Z,4.80
2023-03-29T19:37:11.783Z,7.33
2023-03-29T19:39:13.999Z,4.77
2023-03-29T19:41:16.420Z,4.93
2023-03-29T19:43:20.651Z,5.80
2023-03-29T19:45:23.374Z,5.90
2023-03-29T19:47:25.456Z,5.80
2023-03-29T19:49:28.013Z,5.50
2023-03-29T19:51:30.793Z,5.43
2023-03-29T19:53:33.046Z,6.20
2023-03-29T19:55:37.774Z,6.00
2023-03-29T19:57:39.836Z,6.93
2023-03-29T19:59:43.196Z,6.07
2023-03-29T20:01:51.085Z,5.53
2023-03-29T20:03:53.652Z,6.30
2023-03-29T20:05:56.608Z,6.60
2023-03-29T20:07:58.779Z,6.23
2023-03-29T20:10:00.951Z,6.30
2023-03-29T20:12:03.414Z,6.73
2023-03-29T20:14:05.632Z,6.70
2023-03-29T20:16:10.284Z,6.20
2023-03-29T20:18:12.378Z,6.80
2023-03-29T20:20:14.587Z,6.27
2023-03-29T20:22:16.622Z,6.17
2023-03-29T20:24:18.917Z,6.20
2023-03-29T20:26:21.556Z,5.60
2023-03-29T20:28:24.565Z,5.97
2023-03-29T20:30:26.870Z,6.37
2023-03-29T20:32:30.157Z,6.80
2023-03-29T20:34:32.370Z,6.23
2023-03-29T20:36:34.698Z,6.60
2023-03-29T20:38:37.089Z,5.50
2023-03-29T20:40:40.868Z,6.63
2023-03-29T20:42:43.067Z,6.10
2023-03-29T20:44:50.481Z,6.80
2023-03-29T20:47:08.643Z,6.10
2023-03-29T20:49:10.609Z,6.50
2023-03-29T20:51:14.148Z,7.10
2023-03-29T20:53:16.376Z,7.03
2023-03-29T20:55:22.263Z,6.23
2023-03-29T20:57:24.684Z,6.90
2023-03-29T20:59:27.569Z,6.03
2023-03-29T21:01:30.732Z,7.30
2023-03-29T21:03:32.889Z,6.60
2023-03-29T21:05:35.016Z,6.70
2023-03-29T21:07:37.699Z,6.70
2023-03-29T21:09:39.942Z,6.93
2023-03-29T21:11:42.294Z,6.70
2023-03-29T21:13:45.036Z,6.57
2023-03-29T21:15:47.392Z,6.27
2023-03-29T21:17:49.540Z,7.10
2023-03-29T21:19:52.020Z,6.27
2023-03-29T21:21:55.032Z,6.77
2023-03-29T21:23:57.312Z,7.33
2023-03-29T21:25:59.529Z,6.50
2023-03-29T21:28:01.773Z,6.30
2023-03-29T21:30:07.158Z,6.37
2023-03-29T21:32:09.241Z,6.37
2023-03-29T21:34:11.560Z,6.90
2023-03-29T21:36:13.672Z,6.60
2023-03-29T21:38:16.726Z,6.53
2023-03-29T21:40:18.762Z,5.50
2023-03-29T21:42:20.806Z,6.70
2023-03-29T21:44:23.038Z,6.37
2023-03-29T21:46:26.339Z,5.63
2023-03-29T21:48:28.359Z,5.87
2023-03-29T21:50:33.373Z,5.67
2023-03-29T21:52:37.769Z,5.83
2023-03-29T21:54:39.832Z,5.53
2023-03-29T21:56:42.017Z,6.07
2023-03-29T21:58:44.187Z,6.03
2023-03-29T22:00:46.862Z,6.27
2023-03-29T22:02:49.066Z,6.27
2023-03-29T22:04:51.336Z,7.03
2023-03-29T22:06:53.973Z,6.30
2023-03-29T22:08:56.053Z,5.70
2023-03-29T22:10:58.097Z,5.63
2023-03-29T22:13:01.141Z,5.80
2023-03-29T22:15:06.126Z,6.33
2023-03-29T22:17:08.282Z,6.50
2023-03-29T22:19:10.689Z,6.00
2023-03-29T22:21:18.393Z,5.70
2023-03-29T22:23:20.401Z,5.80
2023-03-29T22:25:23.234Z,6.87
2023-03-29T22:27:25.627Z,7.20
2023-03-29T22:29:27.669Z,6.50
2023-03-29T22:31:30.472Z,7.03
2023-03-29T22:33:33.489Z,6.17
2023-03-29T22:35:35.995Z,6.63
2023-03-29T22:37:42.034Z,6.93
2023-03-29T22:39:44.108Z,7.23
2023-03-29T22:41:46.740Z,6.50
2023-03-29T22:43:50.854Z,5.97
2023-03-29T22:45:52.882Z,6.77
2023-03-29T22:47:55.064Z,6.20
2023-03-29T22:49:57.459Z,6.70
2023-03-29T22:52:01.263Z,6.53
2023-03-29T22:54:03.532Z,6.30
2023-03-29T22:56:07.551Z,5.80
2023-03-29T22:58:09.578Z,5.93
2023-03-29T23:00:13.221Z,6.50
2023-03-29T23:02:15.689Z,6.60
2023-03-29T23:04:18.085Z,7.07
2023-03-29T23:06:20.210Z,5.73
2023-03-29T23:08:23.200Z,5.27
2023-03-29T23:10:31.220Z,5.20
2023-03-29T23:12:36.194Z,5.60
2023-03-29T23:14:42.679Z,6.50
2023-03-29T23:16:44.850Z,6.47
2023-03-29T23:18:47.253Z,6.10
2023-03-29T23:20:54.800Z,5.50
2023-03-29T23:22:57.264Z,5.20
2023-03-29T23:24:59.425Z,6.37
2023-03-29T23:27:01.533Z,6.00
2023-03-29T23:29:04.204Z,5.87
2023-03-29T23:31:11.630Z,6.63
2023-03-29T23:33:14.645Z,5.10
2023-03-29T23:35:16.976Z,6.40
2023-03-29T23:37:19.069Z,6.40
2023-03-29T23:39:21.249Z,5.30
2023-03-29T23:41:28.159Z,5.77
2023-03-29T23:43:35.107Z,5.80
2023-03-29T23:45:37.404Z,5.83
2023-03-29T23:47:40.216Z,5.70
2023-03-29T23:49:45.509Z,6.03
2023-03-29T23:51:48.303Z,5.53
2023-03-29T23:53:50.357Z,6.10
2023-03-29T23:55:56.477Z,5.80
2023-03-29T23:57:58.626Z,6.90
